Pagina principale
METAR-TAF:

METAR-TAF

Aeroporti :

Erbil, Iraq

latitudine: 36-14-15N, longitudine: 43-57-47E, altezza: 415 m

Osservazione

Il bollettino è stato emesso 29 minuti fa, alle 07:00 UTC
Vento 6 kt da ovest/nord-ovest
Temperature 38°C
Umidità 15%
Pressione 1010 hPa
Visibilità: 9000 m

METAR: ORER 200700Z 30006KT 9000 NSC 38/07 Q1010 NOSIG

Ora: 10:29 (07:29 UTC)

Previsione

Il bollettino è stato emesso 3 ore e 29 minuti fa, alle 04:00 UTC
Previsione valida dal 20 alle 06 UTC al 21 alle 06 UTC
Vento 3 kt da direzioni variabili
Visibilità 10 km o più
nessuna nube inferiore a 1500 m e nessun cumulonembo

TAF: ORER 200400Z 2006/2106 VRB03KT CAVOK

Osservazioni e previsioni meteorologiche di più di 4000 aeroporti (messaggi METAR e TAF).

Le stazioni disponibili sono rappresentate dai dischi gialli e rossi sulla carta.

Puntare il mouse per vedere il nome della stazione.

Clicca sopra per visualizzare le osservazioni e previsioni meteorologiche.

Per cambiare la mappa : fare clic sui pulsanti verdi con una croce nera per ingrandire, il pulsante verde con un trattino per diminuire, o sulla freccia verde per le mappe adiacenti.


METAR-TAF: